Time;durP1;ratioP1;P1;durP2;ratioP2;P2;SDS_P1;SDS_P2;PMS_P1;PMS_P2;Temp;Humidity;BMP_temperature;BMP_pressure;BME280_temperature;BME280_humidity;BME280_pressure;Samples;Min_cycle;Max_cycle;Signal;HPM_P1;HPM_P2
2022/10/24 00:00:26;;;;;;;24.30;6.15;;;16.30;99.90;;;15.74;100.00;100127.41;4103059;29;20073;-76
2022/10/24 00:02:27;;;;;;;29.75;5.35;;;16.30;99.90;;;15.77;100.00;100123.56;4120017;28;20045;-76
2022/10/24 00:04:28;;;;;;;31.77;6.28;;;16.40;99.90;;;15.81;100.00;100136.22;4119915;28;20498;-76
2022/10/24 00:06:28;;;;;;;23.90;6.35;;;16.40;99.90;;;15.72;100.00;100120.66;4120177;28;20046;-76
2022/10/24 00:08:29;;;;;;;34.53;4.78;;;16.40;99.90;;;15.71;100.00;100114.53;4118509;28;20102;-76
2022/10/24 00:10:30;;;;;;;27.50;5.60;;;16.40;99.90;;;15.70;100.00;100136.84;4103044;28;20031;-76
2022/10/24 00:12:32;;;;;;;32.50;5.25;;;16.40;99.90;;;15.76;100.00;100156.47;4120020;28;20038;-76
2022/10/24 00:14:34;;;;;;;34.85;5.07;;;16.40;99.90;;;15.71;100.00;100158.94;4118935;28;20039;-77
2022/10/24 00:16:35;;;;;;;25.38;4.85;;;16.40;99.90;;;15.61;100.00;100167.31;4118910;28;20055;-77
2022/10/24 00:18:37;;;;;;;21.58;4.78;;;16.30;99.90;;;15.15;100.00;100185.75;4119783;28;20138;-77
2022/10/24 00:20:38;;;;;;;22.40;4.00;;;16.10;99.90;;;15.05;100.00;100195.13;4118677;28;20026;-77
2022/10/24 00:22:39;;;;;;;22.00;4.07;;;15.90;99.90;;;14.85;100.00;100189.69;4122005;28;20442;-77
2022/10/24 00:24:40;;;;;;;11.70;2.90;;;15.70;99.90;;;14.73;100.00;100189.44;4122136;28;20027;-77
2022/10/24 00:26:41;;;;;;;11.02;2.30;;;15.50;99.90;;;14.57;100.00;100207.53;4106102;29;20102;-77
2022/10/24 00:28:43;;;;;;;6.75;1.38;;;15.30;99.90;;;14.44;100.00;100212.75;4123042;28;20137;-76
2022/10/24 00:30:43;;;;;;;11.23;2.15;;;15.20;99.90;;;14.40;100.00;100229.06;4121925;28;20045;-76
2022/10/24 00:32:44;;;;;;;9.88;2.15;;;15.00;99.90;;;14.31;100.00;100218.72;4123294;28;20027;-76
2022/10/24 00:34:45;;;;;;;9.35;1.40;;;15.00;99.90;;;14.23;100.00;100210.94;4123133;28;20038;-76
2022/10/24 00:36:46;;;;;;;5.18;1.42;;;14.90;99.90;;;14.17;100.00;100215.16;4123138;28;20038;-77
2022/10/24 00:38:48;;;;;;;7.20;1.15;;;14.90;99.90;;;14.12;100.00;100214.09;4123021;28;20105;-76
2022/10/24 00:40:49;;;;;;;11.63;1.95;;;14.80;99.90;;;14.03;100.00;100239.13;4121937;28;20529;-76
2022/10/24 00:42:50;;;;;;;12.27;2.45;;;14.80;99.90;;;13.98;100.00;100223.75;4121801;28;20031;-76
2022/10/24 00:44:54;;;;;;;9.13;1.65;;;14.70;99.90;;;14.10;100.00;100232.84;4105587;29;20039;-76
2022/10/24 00:47:15;;;;;;;8.48;1.67;;;14.70;99.90;;;14.11;100.00;100238.97;4123079;28;20574;-76
2022/10/24 00:49:21;;;;;;;10.98;2.10;;;14.70;99.90;;;14.15;100.00;100240.25;4121917;28;20075;-76
2022/10/24 00:51:32;;;;;;;12.25;2.58;;;14.70;99.90;;;14.02;100.00;100233.00;4105626;29;20083;-76
2022/10/24 00:53:40;;;;;;;16.30;2.72;;;14.70;99.90;;;14.00;100.00;100229.72;4121673;28;20022;-76
2022/10/24 00:55:45;;;;;;;15.07;2.15;;;14.70;99.90;;;14.01;100.00;100247.25;4121835;28;20023;-76
2022/10/24 00:57:55;;;;;;;15.32;2.88;;;14.70;99.90;;;14.06;100.00;100246.69;4121826;28;20026;-76
2022/10/24 01:00:12;;;;;;;21.90;5.47;;;14.70;99.90;;;14.10;100.00;100253.25;4120862;28;20030;-76
2022/10/24 01:02:13;;;;;;;21.25;3.92;;;14.70;99.90;;;14.04;100.00;100254.00;4121415;28;20027;-76
2022/10/24 01:04:14;;;;;;;16.52;3.88;;;14.70;99.90;;;14.09;100.00;100275.50;4105452;29;20126;-77
2022/10/24 01:06:47;;;;;;;24.85;4.05;;;14.70;99.90;;;14.09;100.00;100265.72;4122281;28;20035;-76
2022/10/24 01:08:59;;;;;;;22.25;4.22;;;14.70;99.90;;;14.13;100.00;100276.75;4122739;28;20046;-76
2022/10/24 01:11:45;;;;;;;35.40;4.82;;;14.70;99.90;;;14.16;100.00;100295.75;4122384;28;20027;-76
2022/10/24 01:14:04;;;;;;;27.67;4.45;;;14.80;99.90;;;14.28;100.00;100307.50;4122555;28;20063;-76
2022/10/24 01:16:26;;;;;;;28.83;5.38;;;14.80;99.90;;;14.29;100.00;100308.31;4122501;28;20394;-76
2022/10/24 01:18:46;;;;;;;17.55;3.75;;;14.90;99.90;;;14.19;100.00;100305.97;4121427;28;20035;-76
2022/10/24 01:21:25;;;;;;;12.13;2.20;;;14.80;99.90;;;14.14;100.00;100307.56;4121227;28;20031;-76
2022/10/24 01:24:04;;;;;;;8.18;2.15;;;14.70;99.90;;;14.03;100.00;100292.16;4121645;28;20065;-76
2022/10/24 01:26:34;;;;;;;9.27;1.45;;;14.70;99.90;;;13.97;100.00;100295.56;4116562;28;20039;-76
2022/10/24 01:29:22;;;;;;;11.73;2.67;;;14.60;99.90;;;13.71;100.00;100286.31;4120994;28;20629;-76
2022/10/24 01:32:06;;;;;;;13.27;1.88;;;14.50;99.90;;;13.65;100.00;100291.56;4122482;28;20120;-76
2022/10/24 01:34:29;;;;;;;14.80;3.22;;;14.40;99.90;;;13.62;100.00;100302.53;4122307;28;20501;-76
2022/10/24 01:36:52;;;;;;;15.52;2.88;;;14.30;99.90;;;13.56;100.00;100303.28;4121117;28;20033;-76
2022/10/24 01:39:01;;;;;;;22.42;3.63;;;14.30;99.90;;;13.58;100.00;100306.56;4092581;29;20054;-76
2022/10/24 01:41:22;;;;;;;16.67;2.40;;;14.30;99.90;;;13.60;100.00;100331.03;4121135;28;20041;-76
2022/10/24 01:43:30;;;;;;;11.48;1.75;;;14.30;99.90;;;13.54;100.00;100302.63;4120962;28;20027;-76
2022/10/24 01:45:35;;;;;;;8.90;2.30;;;14.30;99.90;;;13.68;100.00;100325.63;4120738;28;20058;-76
2022/10/24 01:47:47;;;;;;;8.38;1.50;;;14.30;99.90;;;13.63;100.00;100305.00;4120757;28;20033;-77
2022/10/24 01:49:56;;;;;;;13.57;1.67;;;14.30;99.90;;;13.57;100.00;100300.44;4120740;28;20062;-76
2022/10/24 01:52:02;;;;;;;9.30;1.65;;;14.30;99.90;;;13.63;100.00;100314.75;4121201;28;20027;-76
2022/10/24 01:54:04;;;;;;;7.13;1.70;;;14.30;99.90;;;13.59;100.00;100321.47;4120849;28;20034;-76
2022/10/24 01:56:05;;;;;;;12.48;2.28;;;14.30;99.90;;;13.63;100.00;100317.41;4120628;28;20023;-76
2022/10/24 01:58:07;;;;;;;18.27;2.58;;;14.30;99.90;;;13.67;100.00;100321.34;4104471;29;20027;-76
2022/10/24 02:00:16;;;;;;;15.18;3.08;;;14.30;99.90;;;13.72;100.00;100318.94;4122012;28;20031;-76
2022/10/24 02:02:42;;;;;;;18.80;3.08;;;14.30;99.90;;;13.76;100.00;100314.94;4120648;28;20379;-76
2022/10/24 02:05:03;;;;;;;24.30;4.28;;;14.40;99.90;;;13.76;100.00;100314.94;4119247;28;20450;-76
2022/10/24 02:07:10;;;;;;;31.13;5.75;;;14.40;99.90;;;13.79;100.00;100319.84;4121987;28;20023;-76
2022/10/24 02:09:17;;;;;;;27.58;4.43;;;14.40;99.90;;;13.86;100.00;100336.63;4120498;28;20425;-76
2022/10/24 02:11:18;;;;;;;25.55;3.78;;;14.50;99.90;;;13.90;100.00;100334.44;4120547;28;20135;-76
2022/10/24 02:13:44;;;;;;;25.98;3.85;;;14.50;99.90;;;13.96;100.00;100320.44;4120666;28;20534;-76
2022/10/24 02:15:50;;;;;;;22.50;4.60;;;14.60;99.90;;;14.02;100.00;100332.94;4104200;29;20114;-76
2022/10/24 02:17:53;;;;;;;22.98;3.78;;;14.60;99.90;;;14.00;100.00;100325.19;4120138;28;20019;-76
2022/10/24 02:19:54;;;;;;;26.73;3.78;;;14.60;99.90;;;14.04;100.00;100312.34;4120599;28;20038;-76
2022/10/24 02:22:29;;;;;;;28.48;4.82;;;14.60;99.90;;;14.01;100.00;100312.75;4121311;28;20027;-76
2022/10/24 02:24:33;;;;;;;31.23;5.78;;;14.60;99.90;;;14.07;100.00;100328.72;4104319;29;20162;-76
2022/10/24 02:26:55;;;;;;;29.55;6.30;;;14.60;99.90;;;14.18;100.00;100309.66;4104236;29;20042;-76
2022/10/24 02:29:03;;;;;;;38.33;5.78;;;14.70;99.90;;;14.14;100.00;100305.75;4121141;28;20520;-76
2022/10/24 02:31:20;;;;;;;31.08;6.35;;;14.70;99.90;;;14.13;100.00;100301.44;4120392;28;20038;-76
2022/10/24 02:33:22;;;;;;;27.20;5.18;;;14.70;99.90;;;14.12;100.00;100301.63;4119273;28;20560;-76
2022/10/24 02:35:31;;;;;;;32.15;4.72;;;14.70;99.90;;;14.06;100.00;100311.19;4120207;28;20134;-76
2022/10/24 02:37:37;;;;;;;34.30;5.47;;;14.70;99.90;;;14.10;100.00;100320.38;4103922;29;20023;-76
2022/10/24 02:39:42;;;;;;;26.13;5.18;;;14.70;99.90;;;14.10;100.00;100304.47;4114797;28;20030;-76
2022/10/24 02:41:44;;;;;;;30.02;5.40;;;14.70;99.90;;;14.15;100.00;100312.69;4120019;28;20038;-76
2022/10/24 02:43:48;;;;;;;37.08;5.57;;;14.80;99.90;;;14.20;100.00;100322.72;4119492;28;20533;-76
2022/10/24 02:45:55;;;;;;;46.78;6.75;;;14.80;99.90;;;14.19;100.00;100315.75;4111817;28;20062;-76
2022/10/24 02:48:01;;;;;;;40.72;6.18;;;14.80;99.90;;;14.21;100.00;100325.19;4119860;28;20034;-76
2022/10/24 02:50:03;;;;;;;38.30;6.88;;;14.80;99.90;;;14.32;100.00;100323.88;4119833;28;20508;-76
2022/10/24 02:52:04;;;;;;;32.55;5.72;;;14.90;99.90;;;14.40;100.00;100323.75;4121292;28;20030;-76
2022/10/24 02:54:06;;;;;;;43.15;7.93;;;14.90;99.90;;;14.36;100.00;100323.34;4119949;28;20027;-76
2022/10/24 02:56:07;;;;;;;43.83;7.15;;;15.00;99.90;;;14.31;100.00;100317.72;4121177;28;20035;-76
2022/10/24 02:58:08;;;;;;;41.53;7.18;;;15.00;99.90;;;14.37;100.00;100332.09;4121029;28;20106;-76
2022/10/24 03:00:10;;;;;;;32.60;6.80;;;15.00;99.90;;;14.33;100.00;100321.06;4121306;28;20033;-76
2022/10/24 03:02:11;;;;;;;41.22;6.28;;;15.00;99.90;;;14.38;100.00;100318.66;4120922;28;20114;-76
2022/10/24 03:04:12;;;;;;;40.28;5.82;;;15.00;99.90;;;14.40;100.00;100308.66;4120934;28;20031;-76
2022/10/24 03:06:12;;;;;;;45.78;6.80;;;15.00;99.90;;;14.32;100.00;100311.44;4103511;28;20027;-76
2022/10/24 03:08:13;;;;;;;38.20;6.95;;;15.00;99.90;;;14.31;100.00;100303.63;4103802;29;20426;-76
2022/10/24 03:10:14;;;;;;;36.15;6.70;;;15.00;99.90;;;14.42;100.00;100310.31;4103482;29;20039;-76
2022/10/24 03:12:16;;;;;;;36.75;7.82;;;15.10;99.90;;;14.48;100.00;100314.84;4103765;29;20038;-76
2022/10/24 03:14:17;;;;;;;35.53;6.65;;;15.10;99.90;;;14.46;100.00;100309.72;4120581;28;20054;-76
2022/10/24 03:16:18;;;;;;;36.75;6.53;;;15.10;99.90;;;14.48;100.00;100310.38;4119782;28;20394;-76
2022/10/24 03:18:19;;;;;;;50.80;7.07;;;15.10;99.90;;;14.56;100.00;100302.25;4103490;29;20023;-76
2022/10/24 03:20:20;;;;;;;47.80;7.90;;;15.20;99.90;;;14.64;100.00;100311.91;4103451;29;20570;-76
2022/10/24 03:22:21;;;;;;;34.88;5.93;;;15.20;99.90;;;14.61;100.00;100288.41;4120553;28;20085;-76
2022/10/24 03:24:21;;;;;;;33.88;5.25;;;15.30;99.90;;;14.60;100.00;100286.78;4120972;28;20031;-76
2022/10/24 03:26:22;;;;;;;36.15;5.90;;;15.20;99.90;;;14.55;100.00;100281.19;4119457;28;20030;-77
2022/10/24 03:28:24;;;;;;;45.42;8.27;;;15.30;99.90;;;14.63;100.00;100294.34;4120497;28;20411;-76
2022/10/24 03:30:25;;;;;;;40.90;6.40;;;15.30;99.90;;;14.64;100.00;100283.53;4120341;28;20030;-76
2022/10/24 03:32:27;;;;;;;40.63;7.43;;;15.30;99.90;;;14.63;100.00;100278.44;4120391;28;20046;-76
2022/10/24 03:34:27;;;;;;;36.10;6.88;;;15.30;99.90;;;14.67;100.00;100279.66;4119334;28;20065;-76
2022/10/24 03:36:28;;;;;;;43.90;8.23;;;15.30;99.90;;;14.73;100.00;100281.53;4120377;28;20391;-76
2022/10/24 03:38:29;;;;;;;31.27;5.80;;;15.30;99.90;;;14.70;100.00;100273.97;4120286;28;20031;-76
2022/10/24 03:40:30;;;;;;;35.08;6.28;;;15.30;99.90;;;14.70;100.00;100281.94;4120439;28;20498;-76
2022/10/24 03:42:31;;;;;;;33.83;6.05;;;15.30;99.90;;;14.72;100.00;100288.72;4119211;28;20042;-76
2022/10/24 03:44:32;;;;;;;27.88;6.63;;;15.40;99.90;;;14.70;100.00;100277.44;4120218;28;20037;-76
2022/10/24 03:46:33;;;;;;;34.15;5.80;;;15.30;99.90;;;14.74;100.00;100280.53;4119032;28;20038;-76
2022/10/24 03:48:33;;;;;;;32.22;6.82;;;15.40;99.90;;;14.75;100.00;100287.50;4120153;28;20027;-76
2022/10/24 03:50:34;;;;;;;37.95;6.18;;;15.40;99.90;;;14.71;100.00;100281.75;4120335;28;20455;-76
2022/10/24 03:52:35;;;;;;;31.52;6.40;;;15.40;99.90;;;14.72;100.00;100282.56;4120255;28;20027;-76
2022/10/24 03:54:37;;;;;;;34.28;6.55;;;15.40;99.90;;;14.65;100.00;100279.88;4119018;28;20055;-76
2022/10/24 03:56:38;;;;;;;34.25;6.18;;;15.40;99.90;;;14.65;100.00;100282.53;4120157;28;20027;-76
2022/10/24 03:58:39;;;;;;;35.45;6.32;;;15.30;99.90;;;14.66;100.00;100294.78;4119084;28;20038;-76
2022/10/24 04:00:41;;;;;;;36.00;5.90;;;15.30;99.90;;;14.62;100.00;100290.06;4118640;28;20117;-76
2022/10/24 04:02:42;;;;;;;33.67;6.28;;;15.30;99.90;;;14.70;100.00;100305.81;4118647;28;20058;-76
2022/10/24 04:04:43;;;;;;;36.63;7.47;;;15.30;99.90;;;14.67;100.00;100300.91;4120114;28;20030;-76
2022/10/24 04:06:43;;;;;;;36.58;5.75;;;15.30;99.90;;;14.74;100.00;100289.34;4120127;28;20030;-76
2022/10/24 04:08:44;;;;;;;35.10;7.68;;;15.30;99.90;;;14.76;100.00;100286.47;4118947;28;20030;-76
2022/10/24 04:10:47;;;;;;;34.72;6.45;;;15.40;99.90;;;14.79;100.00;100286.91;4119895;28;20491;-76
2022/10/24 04:12:48;;;;;;;38.63;7.45;;;15.40;99.90;;;14.80;100.00;100290.38;4112085;28;20023;-76
2022/10/24 04:14:49;;;;;;;31.25;5.35;;;15.40;99.90;;;14.86;100.00;100309.03;4118870;28;20031;-76
2022/10/24 04:16:50;;;;;;;37.22;6.32;;;15.50;99.90;;;14.87;100.00;100299.22;4103042;29;20066;-76
2022/10/24 04:18:51;;;;;;;38.38;6.95;;;15.50;99.90;;;14.87;100.00;100301.88;4118768;28;20035;-76
2022/10/24 04:20:52;;;;;;;32.97;6.20;;;15.50;99.90;;;14.84;100.00;100294.31;4102700;29;20077;-77
2022/10/24 04:22:53;;;;;;;39.40;7.72;;;15.50;99.90;;;14.94;100.00;100305.38;4118506;28;20494;-76
2022/10/24 04:24:54;;;;;;;34.05;5.85;;;15.60;99.90;;;14.85;100.00;100299.41;4118714;28;20062;-76
2022/10/24 04:26:55;;;;;;;30.95;5.57;;;15.50;99.90;;;14.88;100.00;100314.13;4118652;28;20027;-76
2022/10/24 04:28:56;;;;;;;31.77;6.75;;;15.50;99.90;;;14.83;100.00;100308.59;4119599;28;20047;-76
2022/10/24 04:30:57;;;;;;;49.05;7.80;;;15.50;99.90;;;14.87;100.00;100331.09;4119867;28;20027;-77
2022/10/24 04:32:58;;;;;;;33.78;5.47;;;15.50;99.90;;;14.74;100.00;100323.03;4119680;28;20082;-76
2022/10/24 04:35:01;;;;;;;27.50;5.55;;;15.50;99.90;;;14.82;100.00;100338.78;4130083;28;20033;-76
2022/10/24 04:37:02;;;;;;;24.25;5.43;;;15.40;99.90;;;14.63;100.00;100303.16;4121201;28;20015;-76
2022/10/24 04:39:03;;;;;;;29.02;5.18;;;15.30;99.90;;;14.51;100.00;100319.78;4118833;28;20085;-77
2022/10/24 04:41:04;;;;;;;22.80;3.38;;;15.20;99.90;;;14.48;100.00;100342.22;4118684;28;20030;-76
2022/10/24 04:43:05;;;;;;;18.10;3.42;;;15.20;99.90;;;14.46;100.00;100338.09;4102584;29;20031;-76
2022/10/24 04:45:07;;;;;;;22.67;3.78;;;15.10;99.90;;;14.40;100.00;100347.63;4119491;28;20409;-76
2022/10/24 04:47:08;;;;;;;25.58;4.55;;;15.10;99.90;;;14.36;100.00;100355.19;4118407;28;20446;-76
2022/10/24 04:49:09;;;;;;;31.23;5.53;;;15.00;99.90;;;14.42;100.00;100371.34;4119782;28;20031;-76
2022/10/24 04:51:10;;;;;;;37.42;5.65;;;15.00;99.90;;;14.36;100.00;100370.28;4102388;29;20035;-76
2022/10/24 04:53:12;;;;;;;40.15;5.38;;;15.00;99.90;;;14.43;100.00;100370.31;4102405;29;20448;-76
2022/10/24 04:55:13;;;;;;;39.40;6.13;;;15.00;99.90;;;14.44;100.00;100361.34;4119730;28;20031;-76
2022/10/24 04:57:14;;;;;;;33.50;6.03;;;15.00;99.90;;;14.47;100.00;100379.56;4119733;28;20141;-76
2022/10/24 04:59:14;;;;;;;29.95;5.43;;;15.10;99.90;;;14.50;100.00;100384.47;4118519;28;20442;-76
2022/10/24 05:01:15;;;;;;;35.65;5.43;;;15.10;99.90;;;14.48;100.00;100386.50;4119519;28;20034;-77
2022/10/24 05:03:17;;;;;;;32.05;5.63;;;15.10;99.90;;;14.43;100.00;100386.25;4119558;28;20023;-76
2022/10/24 05:05:18;;;;;;;43.38;7.18;;;15.10;99.90;;;14.54;100.00;100399.03;4118500;28;20065;-76
2022/10/24 05:07:20;;;;;;;24.17;5.03;;;15.00;99.90;;;14.40;100.00;100393.56;4120405;28;20082;-76
2022/10/24 05:09:21;;;;;;;28.35;4.95;;;15.00;99.90;;;14.33;100.00;100392.72;4122847;28;20034;-76
2022/10/24 05:11:22;;;;;;;29.05;4.95;;;15.00;99.90;;;14.25;100.00;100395.44;4121426;28;20422;-76
2022/10/24 05:13:23;;;;;;;28.70;6.55;;;15.00;99.90;;;14.17;100.00;100392.06;4105332;29;20063;-76
2022/10/24 05:15:23;;;;;;;32.72;5.93;;;14.90;99.90;;;14.21;100.00;100399.47;4122567;28;20054;-76
2022/10/24 05:17:24;;;;;;;27.85;5.25;;;14.80;99.90;;;14.18;100.00;100396.38;4121095;28;20062;-76
2022/10/24 05:19:25;;;;;;;26.75;4.90;;;14.80;99.90;;;14.14;100.00;100403.88;4122814;28;20106;-76
2022/10/24 05:21:26;;;;;;;27.80;5.88;;;14.70;99.90;;;14.02;100.00;100413.34;4122641;28;20057;-76
2022/10/24 05:23:27;;;;;;;24.88;3.75;;;14.70;99.90;;;13.98;100.00;100408.59;4105178;29;20031;-77
2022/10/24 05:25:28;;;;;;;22.17;4.43;;;14.60;99.90;;;13.97;100.00;100406.94;4122195;28;20042;-76
2022/10/24 05:27:29;;;;;;;31.15;4.03;;;14.60;99.90;;;13.93;100.00;100409.16;4121144;28;20050;-77
2022/10/24 05:29:30;;;;;;;23.85;4.07;;;14.60;99.90;;;13.92;100.00;100417.31;4122510;28;20221;-76
2022/10/24 05:31:32;;;;;;;27.98;4.70;;;14.60;99.90;;;13.90;100.00;100414.00;4122118;28;20034;-77
2022/10/24 05:33:33;;;;;;;25.85;3.63;;;14.50;99.90;;;13.85;100.00;100403.94;4122032;28;20023;-77
2022/10/24 05:35:34;;;;;;;26.30;4.47;;;14.50;99.90;;;13.93;100.00;100406.50;4104922;29;20030;-77
2022/10/24 05:37:37;;;;;;;29.92;5.22;;;14.60;99.90;;;13.92;100.00;100404.84;4121042;28;20023;-76
2022/10/24 05:39:38;;;;;;;31.45;4.68;;;14.50;99.90;;;13.92;100.00;100402.19;4119245;28;20061;-77
2022/10/24 05:41:39;;;;;;;29.05;5.85;;;14.50;99.90;;;13.81;100.00;100400.84;4120827;28;20030;-77
2022/10/24 05:43:40;;;;;;;29.63;6.32;;;14.50;99.90;;;13.83;100.00;100413.91;4121746;28;20030;-76
2022/10/24 05:45:41;;;;;;;36.28;5.95;;;14.50;99.90;;;13.74;100.00;100415.84;4121879;28;20031;-76
2022/10/24 05:47:42;;;;;;;32.53;5.70;;;14.40;99.90;;;13.70;100.00;100413.75;4120577;28;20023;-76
2022/10/24 05:49:43;;;;;;;34.72;5.28;;;14.40;99.90;;;13.76;100.00;100420.97;4121953;28;20034;-77
2022/10/24 05:51:44;;;;;;;35.80;6.00;;;14.40;99.90;;;13.78;100.00;100429.53;4120896;28;20074;-76
2022/10/24 05:53:45;;;;;;;27.65;5.18;;;14.40;99.90;;;13.89;100.00;100437.03;4104865;29;20042;-76
2022/10/24 05:55:46;;;;;;;32.60;5.28;;;14.50;99.90;;;13.91;100.00;100448.28;4120820;28;20486;-76
2022/10/24 05:57:46;;;;;;;39.63;5.45;;;14.50;99.90;;;13.97;100.00;100442.25;4122022;28;20038;-76
2022/10/24 05:59:47;;;;;;;34.67;5.57;;;14.60;99.90;;;14.03;100.00;100444.16;4120568;28;20022;-77
2022/10/24 06:01:48;;;;;;;36.03;5.75;;;14.60;99.90;;;14.00;100.00;100438.41;4120584;28;20038;-77
2022/10/24 06:03:49;;;;;;;42.42;6.15;;;14.60;99.90;;;14.04;100.00;100445.78;4104719;29;20502;-77
2022/10/24 06:05:50;;;;;;;35.95;6.07;;;14.70;99.90;;;14.06;100.00;100438.50;4120527;28;20061;-76
2022/10/24 06:07:51;;;;;;;42.35;6.38;;;14.70;99.90;;;14.04;100.00;100437.81;4104442;29;20538;-76
2022/10/24 06:09:52;;;;;;;32.60;5.93;;;14.70;99.90;;;14.12;100.00;100447.53;4104439;29;20118;-76
2022/10/24 06:11:53;;;;;;;32.75;4.93;;;14.80;99.90;;;14.13;100.00;100444.66;4121703;28;20494;-76
2022/10/24 06:13:54;;;;;;;25.45;4.18;;;14.80;99.90;;;14.15;100.00;100450.63;4121649;28;20038;-76
2022/10/24 06:15:55;;;;;;;35.00;4.57;;;14.80;99.90;;;14.15;100.00;100445.34;4121525;28;20438;-76
2022/10/24 06:17:55;;;;;;;34.58;5.60;;;14.80;99.90;;;14.22;100.00;100442.72;4120236;28;20065;-76
2022/10/24 06:19:56;;;;;;;30.75;4.47;;;14.80;99.90;;;14.22;100.00;100442.72;4120545;28;20035;-76
2022/10/24 06:21:57;;;;;;;35.08;5.63;;;14.90;99.90;;;14.23;100.00;100439.06;4120250;28;20418;-76
2022/10/24 06:23:58;;;;;;;32.60;5.43;;;14.90;99.90;;;14.30;100.00;100445.28;4104242;29;20024;-76
2022/10/24 06:25:59;;;;;;;25.58;4.15;;;15.00;99.90;;;14.29;100.00;100446.28;4121519;28;20094;-76
2022/10/24 06:28:00;;;;;;;25.10;4.65;;;15.00;99.90;;;14.32;100.00;100451.22;4119926;28;20162;-76
2022/10/24 06:30:02;;;;;;;30.67;4.63;;;15.00;99.90;;;14.38;100.00;100443.38;4120184;28;20035;-76
2022/10/24 06:32:03;;;;;;;28.30;4.70;;;15.00;99.90;;;14.38;100.00;100453.16;4103981;28;20023;-77
2022/10/24 06:34:04;;;;;;;31.63;6.05;;;15.00;99.90;;;14.32;100.00;100441.47;4121437;28;20037;-76
2022/10/24 06:36:08;;;;;;;38.38;6.97;;;15.00;99.90;;;14.45;100.00;100450.59;4120281;28;20089;-77
2022/10/24 06:38:09;;;;;;;30.67;4.68;;;15.00;99.90;;;14.43;100.00;100449.94;4113387;28;20029;-77
2022/10/24 06:40:10;;;;;;;33.97;6.25;;;15.10;99.90;;;14.46;100.00;100449.56;4121113;28;20110;-77
2022/10/24 06:42:11;;;;;;;20.50;4.15;;;15.10;99.90;;;14.47;100.00;100444.06;4120143;28;20027;-77
2022/10/24 06:44:12;;;;;;;25.13;4.32;;;15.20;99.90;;;14.42;100.00;100443.81;4121234;28;20031;-76
2022/10/24 06:46:16;;;;;;;26.52;4.88;;;15.10;99.90;;;14.50;100.00;100450.84;4103951;29;20051;-76
2022/10/24 06:48:17;;;;;;;29.48;4.47;;;15.10;99.90;;;14.55;100.00;100454.56;4121026;28;20027;-77
2022/10/24 06:50:18;;;;;;;26.67;6.13;;;15.20;99.90;;;14.60;100.00;100448.69;4119686;28;20027;-77
2022/10/24 06:52:19;;;;;;;24.92;4.85;;;15.20;99.90;;;14.62;100.00;100444.84;4121160;28;20435;-76
2022/10/24 06:54:19;;;;;;;24.20;4.70;;;15.20;99.90;;;14.66;100.00;100450.59;4121073;28;20022;-77
2022/10/24 06:56:20;;;;;;;22.90;4.68;;;15.20;99.90;;;14.66;100.00;100451.44;4103244;29;20025;-77
2022/10/24 06:58:21;;;;;;;28.33;4.35;;;15.20;99.90;;;14.53;100.00;100451.28;4120887;28;20105;-77
2022/10/24 07:00:22;;;;;;;27.15;5.30;;;15.20;99.90;;;14.48;100.00;100440.41;4121013;28;20408;-77
2022/10/24 07:02:23;;;;;;;25.02;4.03;;;15.20;99.90;;;14.59;100.00;100458.50;4120776;28;20031;-77
2022/10/24 07:04:24;;;;;;;27.83;4.20;;;15.20;99.90;;;14.61;100.00;100460.94;4121058;28;20035;-77
2022/10/24 07:06:28;;;;;;;30.67;5.32;;;15.20;99.90;;;14.55;100.00;100464.34;4108921;28;20027;-77
2022/10/24 07:08:29;;;;;;;33.28;7.07;;;15.20;99.90;;;14.61;100.00;100474.22;4119495;28;20030;-76
2022/10/24 07:10:30;;;;;;;29.33;4.18;;;15.30;99.90;;;14.60;100.00;100473.41;4120727;28;20039;-76
2022/10/24 07:12:31;;;;;;;27.90;5.20;;;15.30;99.90;;;14.69;100.00;100482.91;4103530;29;20103;-77
2022/10/24 07:14:32;;;;;;;28.27;4.97;;;15.30;99.90;;;14.77;100.00;100476.63;4120839;28;20398;-76
2022/10/24 07:16:32;;;;;;;26.85;5.38;;;15.40;99.90;;;14.78;100.00;100470.31;4120950;28;20035;-76
2022/10/24 07:18:34;;;;;;;28.90;4.78;;;15.50;99.90;;;14.88;100.00;100474.28;4119450;28;20026;-77
2022/10/24 07:20:35;;;;;;;24.48;4.45;;;15.60;99.90;;;14.91;100.00;100470.44;4103843;29;20075;-77
2022/10/24 07:22:36;;;;;;;30.60;4.57;;;15.60;99.90;;;14.91;100.00;100478.41;4119330;28;20030;-77
2022/10/24 07:24:37;;;;;;;30.92;5.85;;;15.60;99.90;;;14.86;100.00;100473.69;4120866;28;20442;-76
2022/10/24 07:26:39;;;;;;;28.48;6.22;;;15.50;99.90;;;14.90;100.00;100480.22;4119547;28;20069;-77
2022/10/24 07:28:43;;;;;;;28.25;4.57;;;15.60;99.90;;;14.91;100.00;100487.19;4119198;28;20042;-77
2022/10/24 07:30:44;;;;;;;;;;;15.60;99.90;;;14.89;100.00;100488.41;4119293;28;20506;-77
2022/10/24 07:32:45;;;;;;;23.20;5.38;;;15.60;99.90;;;14.90;100.00;100479.44;4120275;28;19922;-76
2022/10/24 07:34:48;;;;;;;30.92;4.72;;;15.60;99.90;;;14.87;100.00;100479.81;4120709;28;20030;-77
2022/10/24 07:36:49;;;;;;;25.55;4.53;;;15.60;99.90;;;14.99;100.00;100483.59;4119175;28;20033;-77
2022/10/24 07:38:55;;;;;;;24.25;3.97;;;15.70;99.90;;;15.00;100.00;100473.78;4119191;28;20042;-76
2022/10/24 07:40:56;;;;;;;23.85;3.90;;;15.70;99.90;;;15.05;100.00;100477.53;4118916;28;20078;-76
2022/10/24 07:42:57;;;;;;;28.08;5.47;;;15.70;99.90;;;15.02;100.00;100488.53;4120411;28;20042;-75
2022/10/24 07:44:58;;;;;;;21.33;4.45;;;15.70;99.90;;;14.94;100.00;100489.47;4120125;28;20031;-75
2022/10/24 07:46:59;;;;;;;17.13;3.70;;;15.70;99.90;;;14.91;100.00;100489.84;4120180;28;20401;-75
2022/10/24 07:49:00;;;;;;;25.50;3.75;;;15.70;99.90;;;14.96;100.00;100494.63;4119347;28;20023;-75
2022/10/24 07:51:06;;;;;;;22.75;4.25;;;15.70;99.90;;;14.96;100.00;100505.25;4120318;28;20118;-75
2022/10/24 07:53:06;;;;;;;21.70;4.53;;;15.60;99.90;;;14.99;100.00;100504.03;4119169;28;20026;-75
2022/10/24 07:55:08;;;;;;;22.95;3.80;;;15.70;99.90;;;14.96;100.00;100511.34;4119165;28;20085;-75
2022/10/24 07:57:08;;;;;;;25.23;4.88;;;15.70;99.90;;;15.07;100.00;100501.22;4120412;28;20110;-75
2022/10/24 07:59:09;;;;;;;17.65;4.20;;;15.70;99.90;;;15.05;100.00;100509.41;4119037;28;20497;-76
2022/10/24 08:01:20;;;;;;;30.45;3.75;;;15.70;99.90;;;15.11;100.00;100511.31;4120129;28;20030;-75
2022/10/24 08:03:21;;;;;;;22.20;4.40;;;15.80;99.90;;;15.29;100.00;100516.94;4119004;28;20034;-74
2022/10/24 08:05:22;;;;;;;22.38;3.97;;;15.90;99.90;;;15.36;100.00;100517.84;4118851;28;20027;-74
2022/10/24 08:07:23;;;;;;;29.52;4.95;;;16.00;99.90;;;15.44;100.00;100515.03;4100310;29;20031;-76
2022/10/24 08:09:24;;;;;;;22.33;4.22;;;16.10;99.90;;;15.42;100.00;100510.94;4117977;28;20494;-77
2022/10/24 08:11:27;;;;;;;23.33;5.65;;;16.10;99.90;;;15.37;100.00;100516.84;4102365;29;20038;-76
2022/10/24 08:13:28;;;;;;;26.30;5.22;;;16.10;99.90;;;15.41;100.00;100530.56;4118169;28;20509;-76
2022/10/24 08:15:29;;;;;;;22.83;4.03;;;16.10;99.90;;;15.43;100.00;100526.69;4119402;28;20035;-76
2022/10/24 08:17:30;;;;;;;21.75;4.28;;;16.10;99.90;;;15.49;100.00;100528.63;4106278;28;20019;-77
2022/10/24 08:19:32;;;;;;;20.58;3.90;;;16.20;99.90;;;15.74;100.00;100530.84;4101606;29;20027;-76
2022/10/24 08:21:35;;;;;;;24.05;4.63;;;16.40;99.90;;;15.95;100.00;100528.09;4102110;29;20036;-76
2022/10/24 08:23:39;;;;;;;17.92;4.30;;;16.50;99.90;;;15.99;100.00;100527.50;4119191;28;20115;-76
2022/10/24 08:25:40;;;;;;;18.83;4.07;;;16.60;99.90;;;15.87;100.00;100536.22;4117941;28;20494;-76